sensor_id;sensor_type;location;lat;lon;timestamp;pressure;altitude;pressure_sealevel;temperature;humidity
17230;BME280;8731;50.364;8.958;2023-10-09T00:01:38;100637.75;;;13.24;92.44
17230;BME280;8731;50.364;8.958;2023-10-09T00:06:03;100638.31;;;13.30;91.72
17230;BME280;8731;50.364;8.958;2023-10-09T00:10:28;100631.03;;;13.16;92.77
17230;BME280;8731;50.364;8.958;2023-10-09T00:14:57;100631.06;;;13.35;91.59
17230;BME280;8731;50.364;8.958;2023-10-09T00:19:33;100625.72;;;13.23;91.78
17230;BME280;8731;50.364;8.958;2023-10-09T00:23:57;100620.69;;;13.33;91.05
17230;BME280;8731;50.364;8.958;2023-10-09T00:28:25;100615.50;;;13.23;92.17
17230;BME280;8731;50.364;8.958;2023-10-09T00:32:48;100613.59;;;13.20;92.55
17230;BME280;8731;50.364;8.958;2023-10-09T00:37:19;100602.38;;;13.10;93.08
17230;BME280;8731;50.364;8.958;2023-10-09T00:41:45;100597.81;;;13.16;92.88
17230;BME280;8731;50.364;8.958;2023-10-09T00:46:11;100594.16;;;13.04;94.55
17230;BME280;8731;50.364;8.958;2023-10-09T00:50:44;100583.06;;;12.84;94.97
17230;BME280;8731;50.364;8.958;2023-10-09T00:55:13;100582.56;;;13.07;94.21
17230;BME280;8731;50.364;8.958;2023-10-09T00:59:42;100582.19;;;12.94;94.48
17230;BME280;8731;50.364;8.958;2023-10-09T01:04:08;100581.66;;;13.07;93.05
17230;BME280;8731;50.364;8.958;2023-10-09T01:08:32;100568.75;;;13.05;93.34
17230;BME280;8731;50.364;8.958;2023-10-09T01:13:04;100565.16;;;12.84;94.50
17230;BME280;8731;50.364;8.958;2023-10-09T01:17:30;100569.97;;;13.00;93.60
17230;BME280;8731;50.364;8.958;2023-10-09T01:21:57;100568.75;;;12.86;93.48
17230;BME280;8731;50.364;8.958;2023-10-09T01:26:27;100580.00;;;12.88;93.82
17230;BME280;8731;50.364;8.958;2023-10-09T01:30:52;100591.75;;;12.86;94.03
17230;BME280;8731;50.364;8.958;2023-10-09T01:35:16;100577.72;;;12.73;95.53
17230;BME280;8731;50.364;8.958;2023-10-09T01:39:41;100579.66;;;12.75;94.83
17230;BME280;8731;50.364;8.958;2023-10-09T01:44:06;100577.09;;;12.75;94.21
17230;BME280;8731;50.364;8.958;2023-10-09T01:48:31;100567.00;;;12.77;92.77
17230;BME280;8731;50.364;8.958;2023-10-09T01:53:00;100574.19;;;12.62;92.99
17230;BME280;8731;50.364;8.958;2023-10-09T01:57:26;100585.78;;;12.40;94.96
17230;BME280;8731;50.364;8.958;2023-10-09T02:01:52;100578.00;;;12.57;92.91
17230;BME280;8731;50.364;8.958;2023-10-09T02:06:18;100575.22;;;12.45;92.90
17230;BME280;8731;50.364;8.958;2023-10-09T02:10:55;100566.75;;;12.27;92.94
17230;BME280;8731;50.364;8.958;2023-10-09T02:15:17;100556.16;;;12.42;91.68
17230;BME280;8731;50.364;8.958;2023-10-09T02:20:01;100546.94;;;12.25;93.15
17230;BME280;8731;50.364;8.958;2023-10-09T02:24:39;100542.25;;;12.11;93.29
17230;BME280;8731;50.364;8.958;2023-10-09T02:29:21;100549.09;;;11.93;95.28
17230;BME280;8731;50.364;8.958;2023-10-09T02:33:45;100544.88;;;12.21;93.60
17230;BME280;8731;50.364;8.958;2023-10-09T02:38:11;100543.50;;;12.24;92.21
17230;BME280;8731;50.364;8.958;2023-10-09T02:42:34;100545.56;;;12.28;91.47
17230;BME280;8731;50.364;8.958;2023-10-09T02:47:04;100534.78;;;12.31;91.96
17230;BME280;8731;50.364;8.958;2023-10-09T02:51:32;100535.63;;;11.85;95.21
17230;BME280;8731;50.364;8.958;2023-10-09T02:56:03;100524.13;;;11.99;95.81
17230;BME280;8731;50.364;8.958;2023-10-09T03:00:33;100512.66;;;12.13;93.65
17230;BME280;8731;50.364;8.958;2023-10-09T03:04:57;100509.50;;;12.15;92.72
17230;BME280;8731;50.364;8.958;2023-10-09T03:09:20;100504.59;;;12.08;92.83
17230;BME280;8731;50.364;8.958;2023-10-09T03:13:50;100493.59;;;11.82;94.41
17230;BME280;8731;50.364;8.958;2023-10-09T03:18:14;100485.19;;;11.83;95.72
17230;BME280;8731;50.364;8.958;2023-10-09T03:22:37;100498.75;;;12.01;94.21
17230;BME280;8731;50.364;8.958;2023-10-09T03:26:59;100488.22;;;12.06;93.51
17230;BME280;8731;50.364;8.958;2023-10-09T03:31:25;100493.50;;;11.99;93.76
17230;BME280;8731;50.364;8.958;2023-10-09T03:35:47;100499.66;;;12.01;93.95
17230;BME280;8731;50.364;8.958;2023-10-09T03:40:11;100500.91;;;11.96;94.69
17230;BME280;8731;50.364;8.958;2023-10-09T03:44:37;100511.47;;;11.73;98.92
17230;BME280;8731;50.364;8.958;2023-10-09T03:49:05;100496.59;;;11.78;98.60
17230;BME280;8731;50.364;8.958;2023-10-09T03:53:31;100497.81;;;11.81;97.01
17230;BME280;8731;50.364;8.958;2023-10-09T03:57:56;100494.47;;;11.91;95.60
17230;BME280;8731;50.364;8.958;2023-10-09T04:02:19;100493.59;;;11.82;95.60
17230;BME280;8731;50.364;8.958;2023-10-09T04:06:45;100510.41;;;11.88;95.84
17230;BME280;8731;50.364;8.958;2023-10-09T04:11:08;100499.91;;;11.77;95.67
17230;BME280;8731;50.364;8.958;2023-10-09T04:15:36;100507.75;;;11.69;97.36
17230;BME280;8731;50.364;8.958;2023-10-09T04:20:03;100496.16;;;11.82;95.53
17230;BME280;8731;50.364;8.958;2023-10-09T04:25:00;100490.59;;;11.86;95.12
17230;BME280;8731;50.364;8.958;2023-10-09T04:29:28;100499.00;;;11.76;96.71
17230;BME280;8731;50.364;8.958;2023-10-09T04:33:58;100498.81;;;11.92;94.88
17230;BME280;8731;50.364;8.958;2023-10-09T04:38:35;100499.03;;;11.85;95.15
17230;BME280;8731;50.364;8.958;2023-10-09T04:43:00;100496.16;;;11.82;96.72
17230;BME280;8731;50.364;8.958;2023-10-09T04:47:26;100488.06;;;11.86;95.75
17230;BME280;8731;50.364;8.958;2023-10-09T04:51:56;100498.44;;;11.79;96.29
17230;BME280;8731;50.364;8.958;2023-10-09T04:56:28;100508.78;;;11.72;98.33
17230;BME280;8731;50.364;8.958;2023-10-09T05:00:55;100501.72;;;11.86;96.38
17230;BME280;8731;50.364;8.958;2023-10-09T05:05:32;100495.84;;;11.87;96.53
17230;BME280;8731;50.364;8.958;2023-10-09T05:10:18;100492.97;;;11.93;95.33
17230;BME280;8731;50.364;8.958;2023-10-09T05:14:45;100494.19;;;11.88;96.59
17230;BME280;8731;50.364;8.958;2023-10-09T05:19:30;100497.78;;;11.90;96.55
17230;BME280;8731;50.364;8.958;2023-10-09T05:24:03;100492.97;;;11.93;95.94
17230;BME280;8731;50.364;8.958;2023-10-09T05:28:39;100494.47;;;11.91;96.40
17230;BME280;8731;50.364;8.958;2023-10-09T05:33:19;100492.19;;;11.94;96.72
17230;BME280;8731;50.364;8.958;2023-10-09T05:37:55;100473.66;;;11.86;97.39
17230;BME280;8731;50.364;8.958;2023-10-09T05:42:25;100477.16;;;11.97;97.38
17230;BME280;8731;50.364;8.958;2023-10-09T05:47:03;100489.13;;;12.07;96.16
17230;BME280;8731;50.364;8.958;2023-10-09T05:51:39;100486.72;;;12.08;95.70
17230;BME280;8731;50.364;8.958;2023-10-09T05:56:15;100473.63;;;12.14;96.33
17230;BME280;8731;50.364;8.958;2023-10-09T06:00:57;100485.13;;;12.19;95.56
17230;BME280;8731;50.364;8.958;2023-10-09T06:05:37;100496.66;;;12.24;96.75
17230;BME280;8731;50.364;8.958;2023-10-09T06:10:11;100498.59;;;12.26;99.01
17230;BME280;8731;50.364;8.958;2023-10-09T06:14:54;100491.34;;;12.12;100.00
17230;BME280;8731;50.364;8.958;2023-10-09T06:19:39;100484.25;;;12.18;100.00
17230;BME280;8731;50.364;8.958;2023-10-09T06:24:04;100478.75;;;12.33;99.11
17230;BME280;8731;50.364;8.958;2023-10-09T06:28:47;100490.53;;;12.41;97.92
17230;BME280;8731;50.364;8.958;2023-10-09T06:33:30;100484.44;;;12.49;97.38
17230;BME280;8731;50.364;8.958;2023-10-09T06:38:14;100486.81;;;12.56;97.64
17230;BME280;8731;50.364;8.958;2023-10-09T06:43:00;100504.81;;;12.57;99.21
17230;BME280;8731;50.364;8.958;2023-10-09T06:47:28;100515.59;;;12.64;100.00
17230;BME280;8731;50.364;8.958;2023-10-09T06:51:58;100504.03;;;12.77;100.00
17230;BME280;8731;50.364;8.958;2023-10-09T06:56:35;100518.41;;;12.85;100.00
17230;BME280;8731;50.364;8.958;2023-10-09T07:01:17;100524.44;;;12.96;100.00
17230;BME280;8731;50.364;8.958;2023-10-09T07:06:04;100504.88;;;12.86;100.00
17230;BME280;8731;50.364;8.958;2023-10-09T07:10:34;100523.06;;;13.00;100.00
17230;BME280;8731;50.364;8.958;2023-10-09T07:15:01;100522.28;;;13.01;100.00
17230;BME280;8731;50.364;8.958;2023-10-09T07:19:42;100521.97;;;13.06;100.00
17230;BME280;8731;50.364;8.958;2023-10-09T07:24:30;100519.09;;;13.22;100.00
17230;BME280;8731;50.364;8.958;2023-10-09T07:29:06;100530.91;;;13.30;100.00
17230;BME280;8731;50.364;8.958;2023-10-09T07:33:43;100533.50;;;13.40;100.00
17230;BME280;8731;50.364;8.958;2023-10-09T07:38:24;100538.88;;;13.43;100.00
17230;BME280;8731;50.364;8.958;2023-10-09T07:42:49;100546.47;;;13.52;100.00
17230;BME280;8731;50.364;8.958;2023-10-09T07:47:18;100548.41;;;13.55;100.00
17230;BME280;8731;50.364;8.958;2023-10-09T07:52:21;100551.78;;;13.74;100.00
17230;BME280;8731;50.364;8.958;2023-10-09T07:56:44;100541.84;;;13.97;100.00
17230;BME280;8731;50.364;8.958;2023-10-09T08:01:06;100540.34;;;14.20;100.00
17230;BME280;8731;50.364;8.958;2023-10-09T08:05:39;100553.13;;;14.40;100.00
17230;BME280;8731;50.364;8.958;2023-10-09T08:10:07;100579.53;;;14.59;100.00
17230;BME280;8731;50.364;8.958;2023-10-09T08:14:48;100584.81;;;14.71;100.00
17230;BME280;8731;50.364;8.958;2023-10-09T08:19:19;100592.09;;;14.66;100.00
17230;BME280;8731;50.364;8.958;2023-10-09T08:23:54;100586.44;;;14.91;100.00
17230;BME280;8731;50.364;8.958;2023-10-09T08:28:19;100576.44;;;14.84;100.00
17230;BME280;8731;50.364;8.958;2023-10-09T08:33:00;100573.94;;;15.05;100.00
17230;BME280;8731;50.364;8.958;2023-10-09T08:37:23;100568.19;;;15.08;100.00
17230;BME280;8731;50.364;8.958;2023-10-09T08:41:52;100561.50;;;15.10;100.00
17230;BME280;8731;50.364;8.958;2023-10-09T08:46:23;100569.06;;;15.19;100.00
17230;BME280;8731;50.364;8.958;2023-10-09T08:50:49;100557.59;;;15.25;100.00
17230;BME280;8731;50.364;8.958;2023-10-09T08:55:11;100557.19;;;15.31;100.00
17230;BME280;8731;50.364;8.958;2023-10-09T08:59:42;100542.00;;;15.44;100.00
17230;BME280;8731;50.364;8.958;2023-10-09T09:04:05;100544.13;;;15.60;100.00
17230;BME280;8731;50.364;8.958;2023-10-09T09:08:30;100552.00;;;15.61;100.00
17230;BME280;8731;50.364;8.958;2023-10-09T09:12:57;100535.38;;;15.68;100.00
17230;BME280;8731;50.364;8.958;2023-10-09T09:17:30;100552.69;;;15.92;100.00
17230;BME280;8731;50.364;8.958;2023-10-09T09:21:57;100554.94;;;16.00;100.00
17230;BME280;8731;50.364;8.958;2023-10-09T09:26:36;100573.13;;;16.24;100.00
17230;BME280;8731;50.364;8.958;2023-10-09T09:31:08;100560.34;;;16.48;98.30
17230;BME280;8731;50.364;8.958;2023-10-09T09:35:35;100572.47;;;16.61;97.47
17230;BME280;8731;50.364;8.958;2023-10-09T09:40:01;100568.50;;;16.87;96.07
17230;BME280;8731;50.364;8.958;2023-10-09T09:44:35;100556.63;;;17.01;95.07
17230;BME280;8731;50.364;8.958;2023-10-09T09:49:05;100558.78;;;17.18;94.99
17230;BME280;8731;50.364;8.958;2023-10-09T09:53:38;100555.63;;;17.23;94.71
17230;BME280;8731;50.364;8.958;2023-10-09T09:58:01;100551.16;;;17.32;93.96
17230;BME280;8731;50.364;8.958;2023-10-09T10:02:30;100556.75;;;17.14;93.80
17230;BME280;8731;50.364;8.958;2023-10-09T10:06:57;100576.13;;;17.33;93.78
17230;BME280;8731;50.364;8.958;2023-10-09T10:11:45;100554.16;;;17.26;93.84
17230;BME280;8731;50.364;8.958;2023-10-09T10:16:12;100524.75;;;17.23;94.76
17230;BME280;8731;50.364;8.958;2023-10-09T10:21:11;100521.38;;;17.35;94.83
17230;BME280;8731;50.364;8.958;2023-10-09T10:25:37;100596.34;;;17.40;95.44
17230;BME280;8731;50.364;8.958;2023-10-09T10:30:30;100554.06;;;17.36;95.49
17230;BME280;8731;50.364;8.958;2023-10-09T10:34:58;100575.75;;;17.52;94.93
17230;BME280;8731;50.364;8.958;2023-10-09T10:39:26;100556.97;;;17.17;97.71
17230;BME280;8731;50.364;8.958;2023-10-09T10:44:04;100542.97;;;17.37;96.30
17230;BME280;8731;50.364;8.958;2023-10-09T10:48:43;100524.22;;;17.63;95.81
17230;BME280;8731;50.364;8.958;2023-10-09T10:53:21;100495.00;;;17.63;93.67
17230;BME280;8731;50.364;8.958;2023-10-09T10:57:48;100488.91;;;17.86;94.81
17230;BME280;8731;50.364;8.958;2023-10-09T11:02:21;100474.38;;;17.99;93.11
17230;BME280;8731;50.364;8.958;2023-10-09T11:06:52;100461.38;;;17.98;92.21
17230;BME280;8731;50.364;8.958;2023-10-09T11:11:27;100457.91;;;18.22;91.58
17230;BME280;8731;50.364;8.958;2023-10-09T11:16:04;100437.03;;;18.19;90.06
17230;BME280;8731;50.364;8.958;2023-10-09T11:20:36;100428.25;;;18.29;90.15
17230;BME280;8731;50.364;8.958;2023-10-09T11:25:01;100422.59;;;18.34;90.65
17230;BME280;8731;50.364;8.958;2023-10-09T11:29:34;100419.63;;;18.41;89.27
17230;BME280;8731;50.364;8.958;2023-10-09T11:34:21;100416.66;;;18.49;88.85
17230;BME280;8731;50.364;8.958;2023-10-09T11:38:51;100426.59;;;18.56;88.99
17230;BME280;8731;50.364;8.958;2023-10-09T11:44:02;100426.50;;;18.67;88.88
17230;BME280;8731;50.364;8.958;2023-10-09T11:48:25;100420.34;;;18.65;88.86
17230;BME280;8731;50.364;8.958;2023-10-09T11:52:56;100424.91;;;18.83;87.62
17230;BME280;8731;50.364;8.958;2023-10-09T11:57:40;100425.09;;;18.86;86.63
17230;BME280;8731;50.364;8.958;2023-10-09T12:02:05;100425.28;;;18.89;86.40
17230;BME280;8731;50.364;8.958;2023-10-09T12:06:32;100417.16;;;18.96;86.43
17230;BME280;8731;50.364;8.958;2023-10-09T12:10:57;100419.22;;;19.01;86.43
17230;BME280;8731;50.364;8.958;2023-10-09T12:15:28;100425.72;;;18.95;84.71
17230;BME280;8731;50.364;8.958;2023-10-09T12:19:58;100435.69;;;19.17;85.17
17230;BME280;8731;50.364;8.958;2023-10-09T12:24:24;100436.59;;;19.17;84.25
17230;BME280;8731;50.364;8.958;2023-10-09T12:28:50;100428.78;;;19.30;84.53
17230;BME280;8731;50.364;8.958;2023-10-09T12:33:12;100421.75;;;19.28;84.86
17230;BME280;8731;50.364;8.958;2023-10-09T12:37:37;100413.06;;;19.41;84.76
17230;BME280;8731;50.364;8.958;2023-10-09T12:42:01;100413.28;;;19.30;84.00
17230;BME280;8731;50.364;8.958;2023-10-09T12:46:27;100413.63;;;19.50;83.96
17230;BME280;8731;50.364;8.958;2023-10-09T12:50:53;100420.66;;;19.52;83.27
17230;BME280;8731;50.364;8.958;2023-10-09T12:55:20;100417.06;;;19.63;82.99
17230;BME280;8731;50.364;8.958;2023-10-09T12:59:42;100411.56;;;19.72;83.35
17230;BME280;8731;50.364;8.958;2023-10-09T13:04:05;100403.28;;;19.78;83.18
17230;BME280;8731;50.364;8.958;2023-10-09T13:08:32;100412.19;;;19.83;83.46
17230;BME280;8731;50.364;8.958;2023-10-09T13:12:57;100425.13;;;19.83;83.33
17230;BME280;8731;50.364;8.958;2023-10-09T13:17:19;100427.25;;;19.75;83.78
17230;BME280;8731;50.364;8.958;2023-10-09T13:21:43;100418.00;;;19.79;83.18
17230;BME280;8731;50.364;8.958;2023-10-09T13:26:07;100418.75;;;19.91;83.49
17230;BME280;8731;50.364;8.958;2023-10-09T13:30:42;100420.69;;;19.95;82.68
17230;BME280;8731;50.364;8.958;2023-10-09T13:35:10;100408.53;;;19.65;82.41
17230;BME280;8731;50.364;8.958;2023-10-09T13:39:35;100413.56;;;19.91;82.83
17230;BME280;8731;50.364;8.958;2023-10-09T13:44:00;100418.28;;;19.98;82.59
17230;BME280;8731;50.364;8.958;2023-10-09T13:48:25;100403.31;;;20.07;82.72
17230;BME280;8731;50.364;8.958;2023-10-09T13:52:47;100421.50;;;19.94;82.22
17230;BME280;8731;50.364;8.958;2023-10-09T13:57:10;100422.03;;;20.03;82.29
17230;BME280;8731;50.364;8.958;2023-10-09T14:01:32;100415.72;;;20.13;82.24
17230;BME280;8731;50.364;8.958;2023-10-09T14:05:56;100411.97;;;20.22;83.07
17230;BME280;8731;50.364;8.958;2023-10-09T14:10:30;100397.16;;;20.20;83.05
17230;BME280;8731;50.364;8.958;2023-10-09T14:14:59;100422.56;;;20.27;82.85
17230;BME280;8731;50.364;8.958;2023-10-09T14:19:24;100437.03;;;20.38;82.95
17230;BME280;8731;50.364;8.958;2023-10-09T14:23:48;100434.81;;;20.15;82.89
17230;BME280;8731;50.364;8.958;2023-10-09T14:28:10;100425.34;;;20.15;83.29
17230;BME280;8731;50.364;8.958;2023-10-09T14:32:39;100428.00;;;20.32;83.35
17230;BME280;8731;50.364;8.958;2023-10-09T14:37:11;100426.59;;;20.37;83.32
17230;BME280;8731;50.364;8.958;2023-10-09T14:41:36;100425.31;;;20.30;83.24
17230;BME280;8731;50.364;8.958;2023-10-09T14:46:00;100414.28;;;20.18;83.29
17230;BME280;8731;50.364;8.958;2023-10-09T14:50:25;100404.63;;;20.30;83.10
17230;BME280;8731;50.364;8.958;2023-10-09T14:54:47;100405.69;;;20.34;83.48
17230;BME280;8731;50.364;8.958;2023-10-09T14:59:14;100406.59;;;20.34;83.88
17230;BME280;8731;50.364;8.958;2023-10-09T15:03:39;100407.13;;;20.29;84.85
17230;BME280;8731;50.364;8.958;2023-10-09T15:08:03;100409.09;;;20.33;84.49
17230;BME280;8731;50.364;8.958;2023-10-09T15:12:31;100412.84;;;20.38;84.76
17230;BME280;8731;50.364;8.958;2023-10-09T15:17:00;100401.78;;;20.26;86.01
17230;BME280;8731;50.364;8.958;2023-10-09T15:21:27;100398.66;;;20.31;85.19
17230;BME280;8731;50.364;8.958;2023-10-09T15:25:52;100384.41;;;20.08;86.02
17230;BME280;8731;50.364;8.958;2023-10-09T15:30:15;100389.88;;;20.13;85.68
17230;BME280;8731;50.364;8.958;2023-10-09T15:34:39;100392.53;;;20.14;86.57
17230;BME280;8731;50.364;8.958;2023-10-09T15:39:01;100394.31;;;20.15;86.11
17230;BME280;8731;50.364;8.958;2023-10-09T15:43:28;100394.50;;;20.18;85.75
17230;BME280;8731;50.364;8.958;2023-10-09T15:47:51;100399.13;;;20.09;86.01
17230;BME280;8731;50.364;8.958;2023-10-09T15:52:16;100393.78;;;20.06;86.04
17230;BME280;8731;50.364;8.958;2023-10-09T15:56:38;100398.16;;;19.92;87.60
17230;BME280;8731;50.364;8.958;2023-10-09T16:01:06;100398.59;;;20.00;86.69
17230;BME280;8731;50.364;8.958;2023-10-09T16:05:29;100398.25;;;19.94;87.01
17230;BME280;8731;50.364;8.958;2023-10-09T16:09:57;100400.16;;;19.83;87.35
17230;BME280;8731;50.364;8.958;2023-10-09T16:14:26;100409.44;;;19.80;87.80
17230;BME280;8731;50.364;8.958;2023-10-09T16:18:48;100408.63;;;19.81;87.10
17230;BME280;8731;50.364;8.958;2023-10-09T16:23:11;100405.88;;;19.78;86.82
17230;BME280;8731;50.364;8.958;2023-10-09T16:27:37;100409.31;;;19.63;87.28
17230;BME280;8731;50.364;8.958;2023-10-09T16:32:04;100408.84;;;19.56;87.62
17230;BME280;8731;50.364;8.958;2023-10-09T16:36:27;100409.97;;;19.46;88.62
17230;BME280;8731;50.364;8.958;2023-10-09T16:40:54;100412.56;;;19.46;87.73
17230;BME280;8731;50.364;8.958;2023-10-09T16:45:29;100415.16;;;19.33;88.24
17230;BME280;8731;50.364;8.958;2023-10-09T16:49:55;100420.06;;;19.28;88.26
17230;BME280;8731;50.364;8.958;2023-10-09T16:54:18;100436.88;;;19.22;87.95
17230;BME280;8731;50.364;8.958;2023-10-09T16:58:40;100437.88;;;19.11;88.08
17230;BME280;8731;50.364;8.958;2023-10-09T17:03:05;100440.97;;;18.92;89.32
17230;BME280;8731;50.364;8.958;2023-10-09T17:07:28;100446.25;;;18.93;88.97
17230;BME280;8731;50.364;8.958;2023-10-09T17:11:54;100448.84;;;18.80;89.18
17230;BME280;8731;50.364;8.958;2023-10-09T17:16:19;100446.06;;;18.64;89.35
17230;BME280;8731;50.364;8.958;2023-10-09T17:20:45;100451.50;;;18.68;89.16
17230;BME280;8731;50.364;8.958;2023-10-09T17:25:09;100453.38;;;18.58;89.71
17230;BME280;8731;50.364;8.958;2023-10-09T17:29:32;100447.31;;;18.57;89.28
17230;BME280;8731;50.364;8.958;2023-10-09T17:33:58;100444.44;;;18.53;89.24
17230;BME280;8731;50.364;8.958;2023-10-09T17:38:24;100451.38;;;18.54;88.90
17230;BME280;8731;50.364;8.958;2023-10-09T17:42:46;100450.00;;;18.46;88.79
17230;BME280;8731;50.364;8.958;2023-10-09T17:47:10;100452.94;;;18.38;89.10
17230;BME280;8731;50.364;8.958;2023-10-09T17:51:33;100450.88;;;18.33;88.38
17230;BME280;8731;50.364;8.958;2023-10-09T17:55:57;100453.63;;;18.23;88.22
17230;BME280;8731;50.364;8.958;2023-10-09T18:00:20;100458.03;;;17.99;88.36
17230;BME280;8731;50.364;8.958;2023-10-09T18:04:43;100458.50;;;17.93;88.73
17230;BME280;8731;50.364;8.958;2023-10-09T18:09:05;100471.44;;;17.82;88.86
17230;BME280;8731;50.364;8.958;2023-10-09T18:13:37;100465.31;;;17.79;88.53
17230;BME280;8731;50.364;8.958;2023-10-09T18:18:00;100475.41;;;17.76;88.08
17230;BME280;8731;50.364;8.958;2023-10-09T18:22:23;100483.38;;;17.56;88.41
17230;BME280;8731;50.364;8.958;2023-10-09T18:26:46;100481.69;;;17.20;89.74
17230;BME280;8731;50.364;8.958;2023-10-09T18:31:13;100486.13;;;17.34;89.52
17230;BME280;8731;50.364;8.958;2023-10-09T18:35:37;100492.53;;;17.28;89.43
17230;BME280;8731;50.364;8.958;2023-10-09T18:40:00;100487.19;;;17.13;89.53
17230;BME280;8731;50.364;8.958;2023-10-09T18:44:26;100488.63;;;16.98;89.26
17230;BME280;8731;50.364;8.958;2023-10-09T18:48:51;100490.78;;;16.92;89.73
17230;BME280;8731;50.364;8.958;2023-10-09T18:53:13;100488.66;;;16.86;89.95
17230;BME280;8731;50.364;8.958;2023-10-09T18:57:37;100499.75;;;16.85;89.47
17230;BME280;8731;50.364;8.958;2023-10-09T19:02:00;100501.31;;;16.83;89.20
17230;BME280;8731;50.364;8.958;2023-10-09T19:06:26;100513.47;;;16.74;89.34
17230;BME280;8731;50.364;8.958;2023-10-09T19:10:58;100511.06;;;16.42;91.77
17230;BME280;8731;50.364;8.958;2023-10-09T19:15:22;100519.75;;;15.99;94.29
17230;BME280;8731;50.364;8.958;2023-10-09T19:19:45;100517.50;;;16.25;94.22
17230;BME280;8731;50.364;8.958;2023-10-09T19:24:09;100516.72;;;16.26;92.11
17230;BME280;8731;50.364;8.958;2023-10-09T19:28:35;100515.25;;;16.18;92.57
17230;BME280;8731;50.364;8.958;2023-10-09T19:32:58;100513.00;;;16.11;92.30
17230;BME280;8731;50.364;8.958;2023-10-09T19:37:21;100528.38;;;15.99;93.12
17230;BME280;8731;50.364;8.958;2023-10-09T19:41:45;100538.69;;;16.11;92.03
17230;BME280;8731;50.364;8.958;2023-10-09T19:46:08;100541.38;;;16.12;91.26
17230;BME280;8731;50.364;8.958;2023-10-09T19:50:32;100534.06;;;15.95;91.73
17230;BME280;8731;50.364;8.958;2023-10-09T19:54:55;100539.53;;;16.00;91.99
17230;BME280;8731;50.364;8.958;2023-10-09T19:59:19;100534.94;;;15.95;92.21
17230;BME280;8731;50.364;8.958;2023-10-09T20:03:41;100535.78;;;15.84;92.46
17230;BME280;8731;50.364;8.958;2023-10-09T20:08:04;100533.69;;;15.90;91.91
17230;BME280;8731;50.364;8.958;2023-10-09T20:12:26;100529.69;;;15.72;92.82
17230;BME280;8731;50.364;8.958;2023-10-09T20:16:51;100530.00;;;15.65;93.33
17230;BME280;8731;50.364;8.958;2023-10-09T20:21:15;100539.25;;;15.53;93.40
17230;BME280;8731;50.364;8.958;2023-10-09T20:25:39;100540.88;;;15.41;93.37
17230;BME280;8731;50.364;8.958;2023-10-09T20:30:01;100545.13;;;15.40;93.06
17230;BME280;8731;50.364;8.958;2023-10-09T20:34:26;100541.66;;;15.40;93.40
17230;BME280;8731;50.364;8.958;2023-10-09T20:38:49;100543.69;;;15.44;92.88
17230;BME280;8731;50.364;8.958;2023-10-09T20:43:13;100547.59;;;15.28;93.75
17230;BME280;8731;50.364;8.958;2023-10-09T20:47:36;100551.63;;;15.15;94.71
17230;BME280;8731;50.364;8.958;2023-10-09T20:52:00;100554.56;;;15.09;94.48
17230;BME280;8731;50.364;8.958;2023-10-09T20:56:24;100555.47;;;15.10;94.42
17230;BME280;8731;50.364;8.958;2023-10-09T21:00:46;100550.75;;;15.04;94.43
17230;BME280;8731;50.364;8.958;2023-10-09T21:05:09;100557.13;;;14.67;96.38
17230;BME280;8731;50.364;8.958;2023-10-09T21:09:34;100564.66;;;14.65;97.70
17230;BME280;8731;50.364;8.958;2023-10-09T21:13:56;100563.78;;;14.75;95.57
17230;BME280;8731;50.364;8.958;2023-10-09T21:18:19;100570.69;;;14.76;95.24
17230;BME280;8731;50.364;8.958;2023-10-09T21:22:42;100566.56;;;14.37;96.53
17230;BME280;8731;50.364;8.958;2023-10-09T21:27:06;100574.91;;;14.25;98.48
17230;BME280;8731;50.364;8.958;2023-10-09T21:31:28;100582.03;;;14.08;99.57
17230;BME280;8731;50.364;8.958;2023-10-09T21:35:55;100579.13;;;14.34;98.10
17230;BME280;8731;50.364;8.958;2023-10-09T21:40:20;100587.25;;;14.49;95.99
17230;BME280;8731;50.364;8.958;2023-10-09T21:44:51;100580.19;;;14.47;95.78
17230;BME280;8731;50.364;8.958;2023-10-09T21:49:13;100584.25;;;14.34;96.06
17230;BME280;8731;50.364;8.958;2023-10-09T21:53:36;100591.28;;;14.27;96.21
17230;BME280;8731;50.364;8.958;2023-10-09T21:58:01;100590.88;;;14.02;98.39
17230;BME280;8731;50.364;8.958;2023-10-09T22:02:32;100596.97;;;13.94;99.10
17230;BME280;8731;50.364;8.958;2023-10-09T22:06:54;100597.78;;;14.13;97.91
17230;BME280;8731;50.364;8.958;2023-10-09T22:11:17;100598.91;;;13.86;98.89
17230;BME280;8731;50.364;8.958;2023-10-09T22:15:40;100595.09;;;14.01;99.46
17230;BME280;8731;50.364;8.958;2023-10-09T22:20:06;100597.16;;;14.05;97.63
17230;BME280;8731;50.364;8.958;2023-10-09T22:24:34;100604.56;;;14.02;96.76
17230;BME280;8731;50.364;8.958;2023-10-09T22:28:57;100601.19;;;13.83;97.40
17230;BME280;8731;50.364;8.958;2023-10-09T22:33:22;100596.72;;;13.91;96.47
17230;BME280;8731;50.364;8.958;2023-10-09T22:37:47;100588.19;;;14.00;96.35
17230;BME280;8731;50.364;8.958;2023-10-09T22:42:09;100593.28;;;13.90;95.82
17230;BME280;8731;50.364;8.958;2023-10-09T22:46:32;100590.75;;;14.00;95.02
17230;BME280;8731;50.364;8.958;2023-10-09T22:50:55;100590.06;;;13.93;95.02
17230;BME280;8731;50.364;8.958;2023-10-09T22:55:31;100591.72;;;13.92;94.95
17230;BME280;8731;50.364;8.958;2023-10-09T22:59:58;100587.09;;;13.78;94.95
17230;BME280;8731;50.364;8.958;2023-10-09T23:10:22;100588.25;;;13.81;94.42
17230;BME280;8731;50.364;8.958;2023-10-09T23:14:47;100594.97;;;13.61;95.42
17230;BME280;8731;50.364;8.958;2023-10-09T23:19:11;100590.50;;;13.68;96.15
17230;BME280;8731;50.364;8.958;2023-10-09T23:23:52;100591.47;;;13.79;94.74
17230;BME280;8731;50.364;8.958;2023-10-09T23:28:29;100589.13;;;13.72;94.94
17230;BME280;8731;50.364;8.958;2023-10-09T23:33:12;100591.84;;;13.73;93.97
17230;BME280;8731;50.364;8.958;2023-10-09T23:37:42;100601.66;;;13.69;94.51
17230;BME280;8731;50.364;8.958;2023-10-09T23:42:24;100599.84;;;13.68;94.38
17230;BME280;8731;50.364;8.958;2023-10-09T23:46:47;100595.00;;;13.71;94.20